Town Creek, Alabama
Current Conditions -  °F | °C
As of 5:53 AM on Tuesday 27 Jan 2015 (Local Time) from KMSL Reporting Station
Clear Clear  
Wind Chill: 29°   Ceiling: Unl
Heat Index: 34°   Visibility: 10mi
Dew Point: 30°   Wind: 6mph
Humidity: 85%   Direction: 310°NW
Pressure: 29.96"   Gusts: NA
Location:  34.68°N, 87.41°W
Report Text: KMSL 271153Z AUTO 31005KT 10SM CLR 01/M01 A2996 RMK AO2 SLP146 T00111011 10033 20000 53010
Loading
Personal Weather Stations






























Interactive Weather Map New forecast layout! Learn more

10-Day Weather Forecast

Advertisements
Track Severe Weather on mobile